createdAt,value
2024-05-09T00:02:20.645Z,9.40
2024-05-09T00:04:53.051Z,8.27
2024-05-09T00:07:23.383Z,7.37
2024-05-09T00:09:52.995Z,6.43
2024-05-09T00:12:22.659Z,6.03
2024-05-09T00:14:52.301Z,6.13
2024-05-09T00:17:22.169Z,5.77
2024-05-09T00:19:54.471Z,5.43
2024-05-09T00:22:24.165Z,6.00
2024-05-09T00:24:53.808Z,5.43
2024-05-09T00:27:23.480Z,6.27
2024-05-09T00:29:53.078Z,5.60
2024-05-09T00:32:22.827Z,6.10
2024-05-09T00:34:55.238Z,5.73
2024-05-09T00:37:24.901Z,5.93
2024-05-09T00:39:54.547Z,6.20
2024-05-09T00:42:24.189Z,6.70
2024-05-09T00:44:53.789Z,6.13
2024-05-09T00:47:24.163Z,6.37
2024-05-09T00:49:56.809Z,5.97
2024-05-09T00:52:27.029Z,5.73
2024-05-09T00:54:57.343Z,5.30
2024-05-09T00:57:28.207Z,5.60
2024-05-09T00:59:58.418Z,5.97
2024-05-09T01:02:28.629Z,6.83
2024-05-09T01:05:01.113Z,6.33
2024-05-09T01:07:31.430Z,7.10
2024-05-09T01:10:01.039Z,5.70
2024-05-09T01:12:30.732Z,5.20
2024-05-09T01:15:00.627Z,6.10
2024-05-09T01:17:30.630Z,5.83
2024-05-09T01:20:04.247Z,5.47
2024-05-09T01:22:38.393Z,5.77
2024-05-09T01:25:10.872Z,5.57
2024-05-09T01:27:40.512Z,5.70
2024-05-09T01:30:17.221Z,5.73
2024-05-09T01:32:50.979Z,5.27
2024-05-09T01:35:23.289Z,5.97
2024-05-09T01:37:53.348Z,6.00
2024-05-09T01:40:35.513Z,5.77
2024-05-09T01:43:09.071Z,4.77
2024-05-09T01:45:40.077Z,5.17
2024-05-09T01:48:11.262Z,4.90
2024-05-09T01:50:43.062Z,5.03
2024-05-09T01:53:14.734Z,5.83
2024-05-09T01:55:47.598Z,5.53
2024-05-09T01:58:17.836Z,5.53
2024-05-09T02:00:48.402Z,6.60
2024-05-09T02:03:18.548Z,6.50
2024-05-09T02:05:49.783Z,6.33
2024-05-09T02:08:21.323Z,6.20
2024-05-09T02:10:54.175Z,6.67
2024-05-09T02:13:23.961Z,6.93
2024-05-09T02:15:53.783Z,6.00
2024-05-09T02:18:23.714Z,6.67
2024-05-09T02:20:53.578Z,6.33
2024-05-09T02:23:23.285Z,6.00
2024-05-09T02:25:55.574Z,6.83
2024-05-09T02:28:25.304Z,6.23
2024-05-09T02:30:54.927Z,6.90
2024-05-09T02:33:24.773Z,6.40
2024-05-09T02:35:51.964Z,5.77
2024-05-09T02:38:21.702Z,5.97
2024-05-09T02:40:48.796Z,6.10
2024-05-09T02:43:21.067Z,5.43
2024-05-09T02:45:48.172Z,5.43
2024-05-09T02:48:17.979Z,5.10
2024-05-09T02:50:45.292Z,5.37
2024-05-09T02:53:15.363Z,5.50
2024-05-09T02:55:43.166Z,5.53
2024-05-09T02:58:13.757Z,5.37
2024-05-09T03:00:43.525Z,5.27
2024-05-09T03:03:15.408Z,5.60
2024-05-09T03:05:43.355Z,5.40
2024-05-09T03:08:13.513Z,5.87
2024-05-09T03:10:40.621Z,5.30
2024-05-09T03:13:11.442Z,5.30
2024-05-09T03:15:38.531Z,4.80
2024-05-09T03:18:12.220Z,4.97
2024-05-09T03:20:40.102Z,4.70
2024-05-09T03:23:10.719Z,5.07
2024-05-09T03:25:37.985Z,5.50
2024-05-09T03:28:08.471Z,5.10
2024-05-09T03:30:40.981Z,4.47
2024-05-09T03:33:19.104Z,5.10
2024-05-09T03:35:48.254Z,4.70
2024-05-09T03:38:18.555Z,4.57
2024-05-09T03:40:49.397Z,5.17
2024-05-09T03:43:20.360Z,5.13
2024-05-09T03:45:51.857Z,5.20
2024-05-09T03:48:21.808Z,5.00
2024-05-09T03:50:51.760Z,5.17
2024-05-09T03:53:19.217Z,5.37
2024-05-09T03:55:50.169Z,5.03
2024-05-09T03:58:18.903Z,5.20
2024-05-09T04:00:48.711Z,5.43
2024-05-09T04:03:16.188Z,5.73
2024-05-09T04:05:48.746Z,5.00
2024-05-09T04:08:16.147Z,4.73
2024-05-09T04:10:46.113Z,4.63
2024-05-09T04:13:13.285Z,4.93
2024-05-09T04:15:42.943Z,4.93
2024-05-09T04:18:10.130Z,5.00
2024-05-09T04:20:41.145Z,5.40
2024-05-09T04:23:12.440Z,5.40
2024-05-09T04:25:45.258Z,5.43
2024-05-09T04:28:15.516Z,5.40
2024-05-09T04:30:43.274Z,5.30
2024-05-09T04:33:14.674Z,4.97
2024-05-09T04:35:43.477Z,6.00
2024-05-09T04:38:16.394Z,4.97
2024-05-09T04:40:43.676Z,4.37
2024-05-09T04:43:18.961Z,4.73
2024-05-09T04:45:46.416Z,4.43
2024-05-09T04:48:16.695Z,4.93
2024-05-09T04:50:44.274Z,4.87
2024-05-09T04:53:18.632Z,4.57
2024-05-09T04:55:46.032Z,4.97
2024-05-09T04:58:15.872Z,5.03
2024-05-09T05:00:44.080Z,4.30
2024-05-09T05:03:16.042Z,4.37
2024-05-09T05:05:45.360Z,4.30
2024-05-09T05:08:19.853Z,4.33
2024-05-09T05:10:48.560Z,3.97
2024-05-09T05:13:20.956Z,4.13
2024-05-09T05:15:51.033Z,4.20
2024-05-09T05:18:21.054Z,4.00
2024-05-09T05:20:48.668Z,3.80
2024-05-09T05:23:22.258Z,3.67
2024-05-09T05:25:50.428Z,3.83
2024-05-09T05:28:20.190Z,4.00
2024-05-09T05:30:47.528Z,4.00
2024-05-09T05:33:19.231Z,3.87
2024-05-09T05:35:46.838Z,3.50
2024-05-09T05:38:16.669Z,4.43
2024-05-09T05:40:46.426Z,4.80
2024-05-09T05:43:20.431Z,4.60
2024-05-09T05:45:47.600Z,5.10
2024-05-09T05:48:18.897Z,4.97
2024-05-09T05:50:46.523Z,4.80
2024-05-09T05:53:16.459Z,4.70
2024-05-09T05:55:46.289Z,3.93
2024-05-09T05:58:16.447Z,5.30
2024-05-09T06:00:43.640Z,4.50
2024-05-09T06:03:15.006Z,4.47
2024-05-09T06:05:43.948Z,5.27
2024-05-09T06:08:14.422Z,5.00
2024-05-09T06:10:42.450Z,5.13
2024-05-09T06:13:15.740Z,4.67
2024-05-09T06:15:43.653Z,4.83
2024-05-09T06:18:13.868Z,4.60
2024-05-09T06:20:43.146Z,4.87
2024-05-09T06:23:13.744Z,4.37
2024-05-09T06:25:41.762Z,4.20
2024-05-09T06:28:14.110Z,4.37
2024-05-09T06:30:42.690Z,4.77
2024-05-09T06:33:15.952Z,4.70
2024-05-09T06:35:44.063Z,4.43
2024-05-09T06:38:14.147Z,5.13
2024-05-09T06:40:43.665Z,4.00
2024-05-09T06:43:19.409Z,4.70
2024-05-09T06:45:47.956Z,4.53
2024-05-09T06:48:20.643Z,4.23
2024-05-09T06:50:48.497Z,3.87
2024-05-09T06:53:19.399Z,4.47
2024-05-09T06:55:46.507Z,4.47
2024-05-09T06:58:18.858Z,5.30
2024-05-09T07:00:46.065Z,4.63
2024-05-09T07:03:18.789Z,5.17
2024-05-09T07:05:48.322Z,4.73
2024-05-09T07:08:19.388Z,4.80
2024-05-09T07:10:47.007Z,5.37
2024-05-09T07:13:19.463Z,4.90
2024-05-09T07:15:46.549Z,4.40
2024-05-09T07:18:19.965Z,4.43
2024-05-09T07:20:48.562Z,5.07
2024-05-09T07:23:19.293Z,4.60
2024-05-09T07:25:46.682Z,4.43
2024-05-09T07:28:20.084Z,4.70
2024-05-09T07:30:50.004Z,4.23
2024-05-09T07:33:17.770Z,4.30
2024-05-09T07:35:47.754Z,4.77
2024-05-09T07:38:15.054Z,4.87
2024-05-09T07:40:44.832Z,4.70
2024-05-09T07:43:12.898Z,4.40
2024-05-09T07:45:52.086Z,4.50
2024-05-09T07:52:38.510Z,4.90
2024-05-09T07:53:46.415Z,4.80
2024-05-09T07:56:21.861Z,4.83
2024-05-09T07:58:51.323Z,4.93
2024-05-09T08:01:25.642Z,4.47
2024-05-09T08:03:53.277Z,4.40
2024-05-09T08:06:23.381Z,4.33
2024-05-09T08:08:50.526Z,4.30
2024-05-09T08:11:20.408Z,4.07
2024-05-09T08:13:47.511Z,4.07
2024-05-09T08:16:17.531Z,4.00
2024-05-09T08:18:47.351Z,3.80
2024-05-09T08:21:18.402Z,3.13
2024-05-09T08:23:45.453Z,3.40
2024-05-09T08:26:15.207Z,3.53
2024-05-09T08:28:42.234Z,3.73
2024-05-09T08:31:12.678Z,3.57
2024-05-09T08:33:47.800Z,3.47
2024-05-09T08:36:18.520Z,3.27
2024-05-09T08:38:45.739Z,2.90
2024-05-09T08:41:17.170Z,2.70
2024-05-09T08:43:44.677Z,2.57
2024-05-09T08:46:15.712Z,2.60
2024-05-09T08:48:48.041Z,2.53
2024-05-09T08:51:18.291Z,2.07
2024-05-09T08:53:45.590Z,1.97
2024-05-09T08:56:17.409Z,1.83
2024-05-09T08:58:45.333Z,1.70
2024-05-09T09:01:17.073Z,1.63
2024-05-09T09:03:48.695Z,1.90
2024-05-09T09:06:23.631Z,1.60
2024-05-09T09:08:51.109Z,1.40
2024-05-09T09:11:20.805Z,1.33
2024-05-09T09:13:47.876Z,1.30
2024-05-09T09:16:17.707Z,1.52
2024-05-09T09:18:47.538Z,1.50
2024-05-09T09:21:17.228Z,1.83
2024-05-09T09:23:44.314Z,1.65
2024-05-09T09:26:18.508Z,1.33
2024-05-09T09:28:45.645Z,1.20
2024-05-09T09:31:15.574Z,1.27
2024-05-09T09:33:42.890Z,1.52
2024-05-09T09:36:15.800Z,1.00
2024-05-09T09:38:43.711Z,1.05
2024-05-09T09:41:15.652Z,0.82
2024-05-09T09:43:42.913Z,1.10
2024-05-09T09:46:14.070Z,1.00
2024-05-09T09:48:42.545Z,0.98
2024-05-09T09:51:16.336Z,0.95
2024-05-09T09:53:44.631Z,1.38
2024-05-09T09:56:15.790Z,1.17
2024-05-09T09:58:45.308Z,1.13
2024-05-09T10:01:15.040Z,1.20
2024-05-09T10:03:43.100Z,1.05
2024-05-09T10:06:16.828Z,1.30
2024-05-09T10:08:46.916Z,0.90
2024-05-09T10:11:16.592Z,1.02
2024-05-09T10:13:44.514Z,0.88
2024-05-09T10:16:14.509Z,1.25
2024-05-09T10:18:42.140Z,0.93
2024-05-09T10:21:24.100Z,1.00
2024-05-09T10:23:59.043Z,1.13
2024-05-09T10:26:35.502Z,1.00
2024-05-09T10:29:13.874Z,1.00
2024-05-09T10:31:42.036Z,1.13
2024-05-09T10:34:19.887Z,1.00
2024-05-09T10:36:52.231Z,1.08
2024-05-09T10:39:23.107Z,1.08
2024-05-09T10:41:50.188Z,0.90
2024-05-09T10:44:19.969Z,0.90
2024-05-09T10:46:47.477Z,0.90
2024-05-09T10:49:17.484Z,1.00
2024-05-09T10:51:45.170Z,1.08
2024-05-09T10:54:17.497Z,2.03
2024-05-09T10:56:44.559Z,1.00
2024-05-09T10:59:15.580Z,1.05
2024-05-09T11:01:42.845Z,1.02
2024-05-09T11:04:12.879Z,1.00
2024-05-09T11:06:40.551Z,0.98
2024-05-09T11:09:10.384Z,1.02
2024-05-09T11:11:40.356Z,0.80
2024-05-09T11:14:14.865Z,0.95
2024-05-09T11:16:41.974Z,1.13
2024-05-09T11:19:15.553Z,1.00
2024-05-09T11:21:42.984Z,1.15
2024-05-09T11:24:12.693Z,1.00
2024-05-09T11:26:43.150Z,1.10
2024-05-09T11:29:13.810Z,1.33
2024-05-09T11:31:46.363Z,1.00
2024-05-09T11:34:16.447Z,0.90
2024-05-09T11:36:43.724Z,1.00
2024-05-09T11:39:14.695Z,1.00
2024-05-09T11:41:44.464Z,1.38
2024-05-09T11:44:14.160Z,1.10
2024-05-09T11:46:41.328Z,1.67
2024-05-09T11:49:12.476Z,1.40
2024-05-09T11:51:39.875Z,1.10
2024-05-09T11:54:09.514Z,1.40
2024-05-09T11:56:36.703Z,1.30
2024-05-09T11:59:08.977Z,1.20
2024-05-09T12:01:36.234Z,1.30
2024-05-09T12:04:06.569Z,1.13
2024-05-09T12:06:33.963Z,1.20
2024-05-09T12:09:03.689Z,0.98
2024-05-09T12:11:30.838Z,0.90
2024-05-09T12:14:00.488Z,1.00
2024-05-09T12:16:30.345Z,1.52
2024-05-09T12:19:00.192Z,1.30
2024-05-09T12:21:27.237Z,1.00
2024-05-09T12:23:56.910Z,1.13
2024-05-09T12:26:24.014Z,1.40
2024-05-09T12:28:53.890Z,1.02
2024-05-09T12:31:21.092Z,1.05
2024-05-09T12:33:54.462Z,1.20
2024-05-09T12:36:21.573Z,0.93
2024-05-09T12:38:51.602Z,1.80
2024-05-09T12:41:18.664Z,1.05
2024-05-09T12:43:49.586Z,1.23
2024-05-09T12:46:16.719Z,0.98
2024-05-09T12:48:46.558Z,1.27
2024-05-09T12:51:16.299Z,0.77
2024-05-09T12:53:45.936Z,0.90
2024-05-09T12:56:13.017Z,1.27
2024-05-09T12:58:42.693Z,1.10
2024-05-09T13:01:09.810Z,0.90
2024-05-09T13:03:39.770Z,1.30
2024-05-09T13:06:06.986Z,1.15
2024-05-09T13:08:39.305Z,1.00
2024-05-09T13:11:06.468Z,1.10
2024-05-09T13:13:36.102Z,0.90
2024-05-09T13:16:03.566Z,0.90
2024-05-09T13:18:33.445Z,0.77
2024-05-09T13:21:00.695Z,1.00
2024-05-09T13:23:30.806Z,1.38
2024-05-09T13:26:00.526Z,1.00
2024-05-09T13:28:32.150Z,0.73
2024-05-09T13:30:59.372Z,1.00
2024-05-09T13:33:29.174Z,1.20
2024-05-09T13:35:56.660Z,1.20
2024-05-09T13:38:26.708Z,1.02
2024-05-09T13:40:53.803Z,1.00
2024-05-09T13:43:26.174Z,1.17
2024-05-09T13:45:55.517Z,0.95
2024-05-09T13:48:25.472Z,0.93
2024-05-09T13:50:52.630Z,1.10
2024-05-09T13:53:22.730Z,1.30
2024-05-09T13:55:50.222Z,1.40
2024-05-09T13:58:20.149Z,1.17
2024-05-09T14:00:49.913Z,1.65
2024-05-09T14:03:21.032Z,1.45
2024-05-09T14:05:50.091Z,0.80
2024-05-09T14:08:22.266Z,1.30
2024-05-09T14:10:50.108Z,1.50
2024-05-09T14:13:20.331Z,1.38
2024-05-09T14:15:50.301Z,1.30
2024-05-09T14:18:20.488Z,1.10
2024-05-09T14:20:47.611Z,1.02
2024-05-09T14:23:17.301Z,1.23
2024-05-09T14:25:46.005Z,1.00
2024-05-09T14:28:17.055Z,1.40
2024-05-09T14:30:44.182Z,0.82
2024-05-09T14:33:23.409Z,0.90
2024-05-09T14:35:50.801Z,0.90
2024-05-09T14:38:20.591Z,0.90
2024-05-09T14:40:47.717Z,1.20
2024-05-09T14:43:17.902Z,0.80
2024-05-09T14:45:45.606Z,0.90
2024-05-09T14:48:19.778Z,0.98
2024-05-09T14:50:47.986Z,0.93
2024-05-09T14:53:17.626Z,0.90
2024-05-09T14:55:45.186Z,1.10
2024-05-09T14:58:15.252Z,1.02
2024-05-09T15:00:46.656Z,1.05
2024-05-09T15:03:22.894Z,1.50
2024-05-09T15:05:51.349Z,0.90
2024-05-09T15:08:22.072Z,1.00
2024-05-09T15:10:50.272Z,1.10
2024-05-09T15:13:20.792Z,0.90
2024-05-09T15:15:48.686Z,1.27
2024-05-09T15:18:19.027Z,1.05
2024-05-09T15:20:49.163Z,1.15
2024-05-09T15:23:18.991Z,1.30
2024-05-09T15:25:46.234Z,1.10
2024-05-09T15:28:16.420Z,1.02
2024-05-09T15:30:46.364Z,1.02
2024-05-09T15:33:16.823Z,1.05
2024-05-09T15:35:46.167Z,1.00
2024-05-09T15:38:18.863Z,1.00
2024-05-09T15:40:46.218Z,1.05
2024-05-09T15:43:16.199Z,1.17
2024-05-09T15:45:43.367Z,1.10
2024-05-09T15:48:14.201Z,1.00
2024-05-09T15:50:42.651Z,1.10
2024-05-09T15:53:13.980Z,1.20
2024-05-09T15:55:43.879Z,0.95
2024-05-09T15:58:13.763Z,1.05
2024-05-09T16:00:44.025Z,1.00
2024-05-09T16:03:15.803Z,1.08
2024-05-09T16:05:44.316Z,1.15
2024-05-09T16:08:14.963Z,0.90
2024-05-09T16:10:47.122Z,1.00
2024-05-09T16:13:19.507Z,1.15
2024-05-09T16:15:46.971Z,0.90
2024-05-09T16:18:17.040Z,1.02
2024-05-09T16:20:46.292Z,0.85
2024-05-09T16:23:18.114Z,1.20
2024-05-09T16:25:48.794Z,1.13
2024-05-09T16:28:19.327Z,1.45
2024-05-09T16:30:46.894Z,1.10
2024-05-09T16:33:19.385Z,1.08
2024-05-09T16:35:46.782Z,1.30
2024-05-09T16:38:16.502Z,1.23
2024-05-09T16:40:43.839Z,1.17
2024-05-09T16:43:16.461Z,1.20
2024-05-09T16:45:44.701Z,1.30
2024-05-09T16:48:15.420Z,1.52
2024-05-09T16:50:42.830Z,1.38
2024-05-09T16:53:13.559Z,1.63
2024-05-09T16:55:41.443Z,1.48
2024-05-09T16:58:12.492Z,1.00
2024-05-09T17:00:43.858Z,1.20
2024-05-09T17:03:16.316Z,1.63
2024-05-09T17:05:45.596Z,1.40
2024-05-09T17:08:17.741Z,1.00
2024-05-09T17:10:45.076Z,1.40
2024-05-09T17:13:14.872Z,1.40
2024-05-09T17:15:47.634Z,1.67
2024-05-09T17:18:18.063Z,0.93
2024-05-09T17:20:49.070Z,1.20
2024-05-09T17:23:16.182Z,1.20
2024-05-09T17:25:46.004Z,1.20
2024-05-09T17:28:13.683Z,1.33
2024-05-09T17:30:43.760Z,1.50
2024-05-09T17:33:14.005Z,1.03
2024-05-09T17:35:45.718Z,1.10
2024-05-09T17:38:13.078Z,1.27
2024-05-09T17:40:42.779Z,1.10
2024-05-09T17:43:10.862Z,1.13
2024-05-09T17:45:44.091Z,1.63
2024-05-09T17:48:14.026Z,1.30
2024-05-09T17:50:44.051Z,1.50
2024-05-09T17:53:11.517Z,1.40
2024-05-09T17:55:41.683Z,1.50
2024-05-09T17:58:09.806Z,1.33
2024-05-09T18:00:42.073Z,1.30
2024-05-09T18:03:11.980Z,1.20
2024-05-09T18:05:45.763Z,1.53
2024-05-09T18:08:13.652Z,1.60
2024-05-09T18:10:44.192Z,1.60
2024-05-09T18:13:12.856Z,1.77
2024-05-09T18:15:43.370Z,1.70
2024-05-09T18:18:12.578Z,1.90
2024-05-09T18:20:46.246Z,1.50
2024-05-09T18:23:16.658Z,2.10
2024-05-09T18:25:48.196Z,1.73
2024-05-09T18:28:16.936Z,2.20
2024-05-09T18:30:47.351Z,2.13
2024-05-09T18:33:14.902Z,1.87
2024-05-09T18:35:48.731Z,1.90
2024-05-09T18:38:16.100Z,2.00
2024-05-09T18:40:48.534Z,2.17
2024-05-09T18:43:16.877Z,2.00
2024-05-09T18:45:47.483Z,2.00
2024-05-09T18:48:15.495Z,1.93
2024-05-09T18:50:48.103Z,1.93
2024-05-09T18:53:16.058Z,1.87
2024-05-09T18:55:45.873Z,1.83
2024-05-09T18:58:13.382Z,2.10
2024-05-09T19:00:45.891Z,2.10
2024-05-09T19:03:16.030Z,2.03
2024-05-09T19:05:48.752Z,2.17
2024-05-09T19:08:18.853Z,1.97
2024-05-09T19:10:52.346Z,2.20
2024-05-09T19:13:19.580Z,2.00
2024-05-09T19:15:49.298Z,2.03
2024-05-09T19:18:17.273Z,1.93
2024-05-09T19:20:49.749Z,1.80
2024-05-09T19:23:16.880Z,2.20
2024-05-09T19:25:46.564Z,2.07
2024-05-09T19:28:13.751Z,2.00
2024-05-09T19:30:43.518Z,2.30
2024-05-09T19:33:12.473Z,2.13
2024-05-09T19:35:43.617Z,2.50
2024-05-09T19:38:13.644Z,2.43
2024-05-09T19:40:43.787Z,2.47
2024-05-09T19:43:11.167Z,2.70
2024-05-09T19:45:41.117Z,2.00
2024-05-09T19:48:08.894Z,2.50
2024-05-09T19:50:43.168Z,2.20
2024-05-09T19:53:14.717Z,2.20
2024-05-09T19:55:45.031Z,2.17
2024-05-09T19:58:13.053Z,2.10
2024-05-09T20:00:44.299Z,2.50
2024-05-09T20:03:13.182Z,2.87
2024-05-09T20:05:45.548Z,3.20
2024-05-09T20:08:16.269Z,2.10
2024-05-09T20:10:46.079Z,2.93
2024-05-09T20:13:13.734Z,2.33
2024-05-09T20:15:43.551Z,2.50
2024-05-09T20:18:11.347Z,2.20
2024-05-09T20:20:43.569Z,2.07
2024-05-09T20:23:12.728Z,2.63
2024-05-09T20:25:45.266Z,2.20
2024-05-09T20:28:12.423Z,2.60
2024-05-09T20:30:42.273Z,2.40
2024-05-09T20:33:10.119Z,2.40
2024-05-09T20:35:40.399Z,2.73
2024-05-09T20:38:07.783Z,2.47
2024-05-09T20:40:39.311Z,2.20
2024-05-09T20:43:10.561Z,2.50
2024-05-09T20:45:40.971Z,2.73
2024-05-09T20:48:09.629Z,2.80
2024-05-09T20:50:41.974Z,4.23
2024-05-09T20:53:11.454Z,4.20
2024-05-09T20:55:41.532Z,3.43
2024-05-09T20:58:11.562Z,3.20
2024-05-09T21:00:44.593Z,2.77
2024-05-09T21:03:15.593Z,2.60
2024-05-09T21:05:47.242Z,2.63
2024-05-09T21:08:15.229Z,2.63
2024-05-09T21:10:45.176Z,2.53
2024-05-09T21:13:15.187Z,2.90
2024-05-09T21:15:44.936Z,2.70
2024-05-09T21:18:12.191Z,2.50
2024-05-09T21:20:41.846Z,2.83
2024-05-09T21:23:08.906Z,2.57
2024-05-09T21:25:38.682Z,2.40
2024-05-09T21:28:06.327Z,2.50
2024-05-09T21:30:42.460Z,2.43
2024-05-09T21:33:12.538Z,2.33
2024-05-09T21:35:44.653Z,2.60
2024-05-09T21:38:13.519Z,1.93
2024-05-09T21:40:43.701Z,2.20
2024-05-09T21:43:11.109Z,2.40
2024-05-09T21:45:43.530Z,2.33
2024-05-09T21:48:12.894Z,2.20
2024-05-09T21:50:42.926Z,2.20
2024-05-09T21:53:10.808Z,2.13
2024-05-09T21:55:40.574Z,2.20
2024-05-09T21:58:07.862Z,2.30
2024-05-09T22:00:39.355Z,2.50
2024-05-09T22:03:11.094Z,2.80
2024-05-09T22:05:44.137Z,2.50
2024-05-09T22:08:11.689Z,2.40
2024-05-09T22:10:41.421Z,2.40
2024-05-09T22:13:09.075Z,2.60
2024-05-09T22:15:40.657Z,2.10
2024-05-09T22:18:11.580Z,2.20
2024-05-09T22:20:45.581Z,2.20
2024-05-09T22:23:13.933Z,2.50
2024-05-09T22:25:43.965Z,2.27
2024-05-09T22:28:15.266Z,2.37
2024-05-09T22:30:46.732Z,2.50
2024-05-09T22:33:17.351Z,2.70
2024-05-09T22:35:47.441Z,2.17
2024-05-09T22:38:14.616Z,2.57
2024-05-09T22:40:48.398Z,2.10
2024-05-09T22:43:19.259Z,2.10
2024-05-09T22:45:50.005Z,2.00
2024-05-09T22:48:20.234Z,2.53
2024-05-09T22:50:50.035Z,2.10
2024-05-09T22:53:18.078Z,2.90
2024-05-09T22:55:47.702Z,2.90
2024-05-09T22:58:14.743Z,3.40
2024-05-09T23:00:44.588Z,2.60
2024-05-09T23:03:11.795Z,2.83
2024-05-09T23:05:44.308Z,2.97
2024-05-09T23:08:11.410Z,2.60
2024-05-09T23:10:41.145Z,2.50
2024-05-09T23:13:08.643Z,2.50
2024-05-09T23:15:39.374Z,2.30
2024-05-09T23:18:07.378Z,2.53
2024-05-09T23:20:40.177Z,2.60
2024-05-09T23:23:11.700Z,2.43
2024-05-09T23:25:43.422Z,2.47
2024-05-09T23:28:10.920Z,2.27
2024-05-09T23:30:41.826Z,2.80
2024-05-09T23:33:10.990Z,2.67
2024-05-09T23:35:40.964Z,2.70
2024-05-09T23:38:10.683Z,2.97
2024-05-09T23:40:41.696Z,2.57
2024-05-09T23:43:10.894Z,2.60
2024-05-09T23:45:41.631Z,2.67
2024-05-09T23:48:10.306Z,3.30
2024-05-09T23:50:40.875Z,4.37
2024-05-09T23:53:11.406Z,4.33
2024-05-09T23:55:41.615Z,7.47
2024-05-09T23:58:09.140Z,9.80
